Odiham, United Kingdom
Current Conditions -  °F | °C
As of 4:50 PM on Friday 24 Oct 2014 (Local Time) from EGVO Reporting Station
Broken Clouds Broken Clouds  
Wind Chill: 61°   Ceiling: 1300
Heat Index: 61°   Visibility: 6mi
Dew Point: 57°   Wind: 10mph
Humidity: 88%   Direction: 220°SW
Pressure: 29.91"   Gusts: NA
Location:  51.25°N, 0.94°W
Report Text: EGVO 241550Z 22009KT 9999 BKN013 BKN025 16/14 Q1013 GRN TEMPO FEW013 BKN020 WHT
Loading
Personal Weather Stations






























Interactive Weather Map
Tropical Storm Tracking
New forecast layout! Learn more

10-Day Weather Forecast

Advertisements
Track Severe Weather on mobile